Time;durP1;ratioP1;P1;durP2;ratioP2;P2;SDS_P1;SDS_P2;PMS_P1;PMS_P2;Temp;Humidity;BMP_temperature;BMP_pressure;BME280_temperature;BME280_humidity;BME280_pressure;Samples;Min_cycle;Max_cycle;Signal;HPM_P1;HPM_P2
2022/10/23 00:01:30;;;;;;;10.17;8.47;;;13.10;1.00;;;;;;4946947;28;20201;-67
2022/10/23 00:04:14;;;;;;;9.00;7.47;;;13.10;1.00;;;;;;4948247;28;20787;-67
2022/10/23 00:06:40;;;;;;;12.00;8.20;;;13.10;1.00;;;;;;4947976;28;20420;-67
2022/10/23 00:09:07;;;;;;;15.20;8.50;;;13.10;1.00;;;;;;4948112;28;20418;-67
2022/10/23 00:11:34;;;;;;;12.00;7.10;;;13.10;1.00;;;;;;4947569;28;20703;-67
2022/10/23 00:14:03;;;;;;;10.00;7.30;;;13.10;1.00;;;;;;4948554;29;20843;-66
2022/10/23 00:16:29;;;;;;;17.27;9.63;;;13.10;1.00;;;;;;4947741;29;20956;-67
2022/10/23 00:18:55;;;;;;;17.80;10.07;;;13.00;1.00;;;;;;4947585;29;20477;-67
2022/10/23 00:21:21;;;;;;;11.20;9.47;;;13.00;1.00;;;;;;4946767;29;20500;-67
2022/10/23 00:23:47;;;;;;;12.07;9.40;;;13.10;1.00;;;;;;4947628;28;20835;-68
2022/10/23 00:26:14;;;;;;;17.73;11.07;;;13.10;1.00;;;;;;4947820;29;20449;-68
2022/10/23 00:28:48;;;;;;;15.50;11.30;;;13.10;1.00;;;;;;4947380;29;20209;-67
2022/10/23 00:31:14;;;;;;;17.10;12.20;;;13.00;1.00;;;;;;4941738;29;20428;-68
2022/10/23 00:33:41;;;;;;;17.10;11.50;;;13.10;1.00;;;;;;4947931;28;20517;-68
2022/10/23 00:36:09;;;;;;;12.80;11.33;;;13.10;1.00;;;;;;4941324;29;20501;-68
2022/10/23 00:38:35;;;;;;;13.60;10.30;;;13.10;1.00;;;;;;4947995;29;20418;-67
2022/10/23 00:41:02;;;;;;;11.60;10.43;;;13.10;1.00;;;;;;4946631;28;20464;-68
2022/10/23 00:43:29;;;;;;;13.63;11.33;;;13.00;1.00;;;;;;4947095;28;20450;-68
2022/10/23 00:45:55;;;;;;;15.37;11.80;;;13.00;1.00;;;;;;4947142;28;20425;-68
2022/10/23 00:48:21;;;;;;;17.03;11.60;;;12.90;1.00;;;;;;4947867;28;20782;-68
2022/10/23 00:50:49;;;;;;;75.30;12.33;;;12.80;1.00;;;;;;4946511;29;20492;-68
2022/10/23 00:53:17;;;;;;;96.70;14.70;;;12.60;1.00;;;;;;4947730;29;20590;-68
2022/10/23 00:55:45;;;;;;;39.60;10.57;;;12.30;1.00;;;;;;4946912;28;20453;-68
2022/10/23 00:58:13;;;;;;;20.77;9.50;;;12.10;1.00;;;;;;4947625;28;20414;-68
2022/10/23 01:00:44;;;;;;;14.57;9.93;;;12.10;1.00;;;;;;4942123;28;20548;-67
2022/10/23 01:03:10;;;;;;;42.60;12.17;;;12.10;1.00;;;;;;4941273;29;20414;-68
2022/10/23 01:05:47;;;;;;;52.53;10.90;;;12.10;1.00;;;;;;4947060;28;20486;-68
2022/10/23 01:08:27;;;;;;;14.40;8.50;;;12.00;1.00;;;;;;4942165;29;20923;-68
2022/10/23 01:11:20;;;;;;;14.77;9.40;;;12.10;1.00;;;;;;4947511;28;20414;-69
2022/10/23 01:14:15;;;;;;;24.67;9.50;;;12.20;1.00;;;;;;4951613;28;20484;-67
2022/10/23 01:17:04;;;;;;;32.17;9.63;;;12.40;1.00;;;;;;4953127;28;20771;-67
2022/10/23 01:19:50;;;;;;;10.70;9.23;;;12.40;1.00;;;;;;4950852;28;20965;-68
2022/10/23 01:22:49;;;;;;;11.57;9.23;;;12.50;1.00;;;;;;4950139;29;20457;-67
2022/10/23 01:25:14;;;;;;;23.87;11.40;;;12.60;1.00;;;;;;4953877;28;20798;-67
2022/10/23 01:27:47;;;;;;;22.23;9.60;;;12.60;1.00;;;;;;4954090;29;20414;-67
2022/10/23 01:30:16;;;;;;;22.77;10.37;;;12.70;1.00;;;;;;4947970;29;20543;-68
2022/10/23 01:32:51;;;;;;;12.03;8.37;;;12.60;1.00;;;;;;4952524;28;20444;-69
2022/10/23 01:35:24;;;;;;;11.90;8.70;;;12.50;1.00;;;;;;4994595;23;21060;-67
2022/10/23 01:38:13;;;;;;;12.80;9.27;;;12.60;1.00;;;;;;5011766;28;20404;-68
2022/10/23 01:40:41;;;;;;;10.93;9.97;;;12.50;1.00;;;;;;5007816;28;20997;-68
2022/10/23 01:43:15;;;;;;;9.67;7.00;;;12.60;1.00;;;;;;5011746;28;20407;-68
2022/10/23 01:45:55;;;;;;;7.47;6.57;;;12.70;1.00;;;;;;4997184;28;20824;-69
2022/10/23 01:48:25;;;;;;;13.83;6.47;;;12.80;1.00;;;;;;4987779;28;20416;-67
2022/10/23 01:50:54;;;;;;;10.73;6.13;;;12.80;1.00;;;;;;4991177;28;20412;-67
2022/10/23 01:53:20;;;;;;;12.00;6.10;;;12.90;1.00;;;;;;4992178;28;20424;-66
2022/10/23 01:55:48;;;;;;;13.60;7.37;;;12.90;1.00;;;;;;4991655;28;20442;-69
2022/10/23 01:58:15;;;;;;;7.83;5.87;;;12.80;1.00;;;;;;4992290;28;20416;-68
2022/10/23 02:00:43;;;;;;;8.80;6.83;;;12.70;1.00;;;;;;4990414;28;20521;-67
2022/10/23 02:03:12;;;;;;;7.87;6.57;;;12.80;1.00;;;;;;4988303;28;20416;-70
2022/10/23 02:05:38;;;;;;;12.03;6.03;;;12.80;1.00;;;;;;4986333;28;20506;-68
2022/10/23 02:08:04;;;;;;;7.80;7.00;;;12.70;1.00;;;;;;4991744;28;20420;-69
2022/10/23 02:10:43;;;;;;;9.77;6.37;;;12.60;1.00;;;;;;4990459;28;20474;-69
2022/10/23 02:13:22;;;;;;;9.90;6.30;;;12.60;1.00;;;;;;4985838;28;20951;-69
2022/10/23 02:15:55;;;;;;;10.30;5.80;;;12.60;1.00;;;;;;4991030;28;20447;-69
2022/10/23 02:18:28;;;;;;;5.40;4.90;;;12.60;1.00;;;;;;4991730;28;20416;-69
2022/10/23 02:21:08;;;;;;;7.03;5.90;;;12.50;1.00;;;;;;4993907;28;20463;-69
2022/10/23 02:23:48;;;;;;;9.60;6.60;;;12.40;1.00;;;;;;5005590;28;20411;-69
2022/10/23 02:26:58;;;;;;;8.70;5.10;;;12.20;1.00;;;;;;5002962;28;20436;-70
2022/10/23 02:29:33;;;;;;;6.67;6.03;;;12.00;1.00;;;;;;5005802;28;20423;-68
2022/10/23 02:32:00;;;;;;;7.90;5.63;;;12.20;1.00;;;;;;5002859;28;20419;-69
2022/10/23 02:34:25;;;;;;;9.23;5.60;;;12.20;1.00;;;;;;4998549;28;20492;-69
2022/10/23 02:36:51;;;;;;;5.83;5.23;;;12.20;1.00;;;;;;5006039;28;20423;-71
2022/10/23 02:39:17;;;;;;;9.20;5.77;;;12.20;1.00;;;;;;5004996;28;20176;-70
2022/10/23 02:42:21;;;;;;;6.80;5.83;;;12.20;1.00;;;;;;5004087;28;20204;-70
2022/10/23 02:45:19;;;;;;;5.87;5.20;;;12.20;1.00;;;;;;5018912;28;20217;-70
2022/10/23 02:48:17;;;;;;;7.20;5.50;;;12.10;1.00;;;;;;5005943;28;20432;-69
2022/10/23 02:50:51;;;;;;;5.67;5.17;;;12.00;1.00;;;;;;5003977;28;20428;-68
2022/10/23 02:53:29;;;;;;;15.20;6.47;;;12.00;1.00;;;;;;4998723;28;20424;-69
2022/10/23 02:56:13;;;;;;;6.47;5.37;;;12.10;1.00;;;;;;4990533;28;20447;-69
2022/10/23 02:58:58;;;;;;;7.90;5.77;;;12.00;1.00;;;;;;4990658;28;20783;-69
2022/10/23 03:01:34;;;;;;;8.13;6.33;;;11.90;1.00;;;;;;4985115;28;20447;-68
2022/10/23 03:04:04;;;;;;;7.80;5.73;;;11.90;1.00;;;;;;4989272;28;20455;-69
2022/10/23 03:06:31;;;;;;;11.63;7.20;;;11.90;1.00;;;;;;4990455;28;20427;-69
2022/10/23 03:08:58;;;;;;;17.30;7.33;;;12.00;1.00;;;;;;4990001;28;20440;-69
2022/10/23 03:11:24;;;;;;;8.27;7.33;;;11.90;1.00;;;;;;4989837;28;20427;-69
2022/10/23 03:13:50;;;;;;;8.17;7.30;;;11.90;1.00;;;;;;4990591;28;20420;-69
2022/10/23 03:16:15;;;;;;;7.70;6.90;;;11.90;1.00;;;;;;4990098;28;21001;-69
2022/10/23 03:18:41;;;;;;;8.20;7.40;;;11.90;1.00;;;;;;4990538;28;20765;-69
2022/10/23 03:21:07;;;;;;;11.17;7.73;;;12.00;1.00;;;;;;4989279;28;20302;-69
2022/10/23 03:23:32;;;;;;;10.03;7.43;;;12.00;1.00;;;;;;4990423;28;20192;-69
2022/10/23 03:25:58;;;;;;;8.00;7.20;;;12.00;1.00;;;;;;4989600;28;20584;-70
2022/10/23 03:28:24;;;;;;;8.97;6.90;;;12.00;1.00;;;;;;4990270;28;20169;-68
2022/10/23 03:30:50;;;;;;;25.03;8.30;;;12.00;1.00;;;;;;4988712;28;20337;-69
2022/10/23 03:33:16;;;;;;;12.37;7.57;;;12.00;1.00;;;;;;4989912;28;20173;-69
2022/10/23 03:35:42;;;;;;;13.53;7.87;;;11.80;1.00;;;;;;4988578;28;20452;-68
2022/10/23 03:38:07;;;;;;;9.63;8.63;;;11.80;1.00;;;;;;4990248;28;20633;-69
2022/10/23 03:40:33;;;;;;;13.40;7.70;;;11.90;1.00;;;;;;4988876;28;20215;-69
2022/10/23 03:42:59;;;;;;;14.37;7.50;;;11.90;1.00;;;;;;4990019;28;20227;-69
2022/10/23 03:45:24;;;;;;;9.30;7.50;;;12.00;1.00;;;;;;4989414;28;20193;-68
2022/10/23 03:47:50;;;;;;;7.77;7.00;;;12.00;1.00;;;;;;4989720;28;20173;-69
2022/10/23 03:50:17;;;;;;;9.43;8.43;;;12.00;1.00;;;;;;4989400;28;20172;-69
2022/10/23 03:52:43;;;;;;;10.37;7.37;;;12.00;1.00;;;;;;4989213;28;20798;-69
2022/10/23 03:55:09;;;;;;;10.20;7.73;;;12.10;1.00;;;;;;4983480;28;20444;-69
2022/10/23 03:57:34;;;;;;;20.60;8.60;;;12.10;1.00;;;;;;4989915;28;20426;-69
2022/10/23 04:00:00;;;;;;;9.20;7.67;;;12.10;1.00;;;;;;4988934;28;20244;-69
2022/10/23 04:02:26;;;;;;;9.13;8.00;;;12.10;1.00;;;;;;4987686;28;20236;-68
2022/10/23 04:04:51;;;;;;;9.70;7.10;;;12.10;1.00;;;;;;4989462;28;20197;-67
2022/10/23 04:07:17;;;;;;;8.10;7.03;;;12.10;1.00;;;;;;4989890;28;20173;-68
2022/10/23 04:09:43;;;;;;;8.93;7.37;;;12.00;1.00;;;;;;4989376;28;20239;-68
2022/10/23 04:12:08;;;;;;;16.97;7.90;;;12.00;1.00;;;;;;4988858;28;20169;-69
2022/10/23 04:14:34;;;;;;;11.37;8.27;;;11.90;1.00;;;;;;4989480;28;20254;-69
2022/10/23 04:17:00;;;;;;;9.10;8.20;;;12.00;1.00;;;;;;4988978;28;20205;-67
2022/10/23 04:19:25;;;;;;;8.70;7.57;;;11.90;1.00;;;;;;4989600;28;20731;-67
2022/10/23 04:21:51;;;;;;;11.10;7.10;;;11.90;1.00;;;;;;4992902;28;20196;-67
2022/10/23 04:24:17;;;;;;;9.00;6.83;;;11.90;1.00;;;;;;4994819;28;20193;-67
2022/10/23 04:26:42;;;;;;;9.73;7.43;;;11.90;1.00;;;;;;4989169;28;20629;-69
2022/10/23 04:29:08;;;;;;;8.33;7.63;;;11.90;1.00;;;;;;4989441;28;20169;-67
2022/10/23 04:31:34;;;;;;;8.00;7.27;;;11.90;1.00;;;;;;4988001;28;20173;-67
2022/10/23 04:33:59;;;;;;;26.80;9.27;;;11.90;1.00;;;;;;4989565;28;20661;-68
2022/10/23 04:36:25;;;;;;;8.93;8.03;;;11.70;1.00;;;;;;4989005;28;20223;-68
2022/10/23 04:38:52;;;;;;;47.00;9.03;;;11.50;1.00;;;;;;4989280;28;20187;-69
2022/10/23 04:41:17;;;;;;;18.00;8.83;;;11.40;1.00;;;;;;4989048;28;20750;-68
2022/10/23 04:43:43;;;;;;;8.57;7.67;;;11.50;1.00;;;;;;5004029;28;20507;-66
2022/10/23 04:46:09;;;;;;;11.17;7.80;;;11.60;1.00;;;;;;5008159;28;20189;-66
2022/10/23 04:48:34;;;;;;;24.50;7.93;;;11.70;1.00;;;;;;4997421;28;20173;-68
2022/10/23 04:51:03;;;;;;;7.80;7.10;;;11.70;1.00;;;;;;4991220;28;20173;-67
2022/10/23 04:53:30;;;;;;;7.47;6.77;;;11.60;1.00;;;;;;4992819;28;20181;-68
2022/10/23 04:55:57;;;;;;;8.07;7.27;;;11.60;1.00;;;;;;4992949;28;21022;-69
2022/10/23 04:58:24;;;;;;;10.33;7.50;;;11.70;1.00;;;;;;4992932;28;20416;-68
2022/10/23 05:00:50;;;;;;;8.50;7.70;;;11.70;1.00;;;;;;4991763;28;20575;-69
2022/10/23 05:03:17;;;;;;;11.20;8.60;;;11.80;1.00;;;;;;4993204;28;20485;-69
2022/10/23 05:05:43;;;;;;;10.80;7.90;;;11.80;1.00;;;;;;4991196;28;20443;-68
2022/10/23 05:08:10;;;;;;;9.70;6.97;;;11.90;1.00;;;;;;4992963;28;20545;-68
2022/10/23 05:10:36;;;;;;;15.93;8.37;;;11.80;1.00;;;;;;4991947;28;20493;-69
2022/10/23 05:13:03;;;;;;;10.10;9.00;;;11.80;1.00;;;;;;4990586;28;20428;-70
2022/10/23 05:15:29;;;;;;;9.17;8.27;;;11.70;1.00;;;;;;4987402;28;20463;-66
2022/10/23 05:17:58;;;;;;;20.33;8.47;;;11.70;1.00;;;;;;4991499;28;20575;-67
2022/10/23 05:20:27;;;;;;;22.23;8.50;;;11.60;1.00;;;;;;4984881;28;20432;-70
2022/10/23 05:22:57;;;;;;;9.20;7.33;;;11.40;1.00;;;;;;4987162;28;20459;-69
2022/10/23 05:25:23;;;;;;;10.90;7.97;;;11.90;1.00;;;;;;4992399;28;20428;-70
2022/10/23 05:27:48;;;;;;;15.17;7.73;;;12.00;1.00;;;;;;4992693;28;20416;-70
2022/10/23 05:30:14;;;;;;;19.27;9.20;;;11.60;1.00;;;;;;4988683;28;20528;-70
2022/10/23 05:32:40;;;;;;;25.30;8.40;;;11.50;1.00;;;;;;4988072;28;20677;-69
2022/10/23 05:35:09;;;;;;;8.70;7.80;;;11.60;1.00;;;;;;4991333;28;20208;-68
2022/10/23 05:37:40;;;;;;;22.50;7.90;;;11.90;1.00;;;;;;4984668;28;20186;-69
2022/10/23 05:40:07;;;;;;;8.63;7.23;;;11.80;1.00;;;;;;4991358;28;20774;-69
2022/10/23 05:42:32;;;;;;;11.40;6.60;;;11.60;1.00;;;;;;4990675;28;20458;-71
2022/10/23 05:44:58;;;;;;;29.57;8.57;;;11.50;1.00;;;;;;4991006;28;20886;-69
2022/10/23 05:47:24;;;;;;;21.13;9.30;;;11.60;1.00;;;;;;4990942;28;20188;-69
2022/10/23 05:49:50;;;;;;;26.53;8.70;;;11.60;1.00;;;;;;4991292;28;20173;-69
2022/10/23 05:52:15;;;;;;;10.43;7.00;;;11.60;1.00;;;;;;4991290;28;20587;-69
2022/10/23 05:54:41;;;;;;;7.10;6.23;;;11.60;1.00;;;;;;4991800;28;20197;-70
2022/10/23 05:57:07;;;;;;;9.33;7.33;;;11.60;1.00;;;;;;4989546;28;20658;-68
2022/10/23 05:59:32;;;;;;;9.27;7.17;;;11.60;1.00;;;;;;4987817;28;20189;-70
2022/10/23 06:01:58;;;;;;;7.77;6.97;;;11.60;1.00;;;;;;4987414;28;20213;-68
2022/10/23 06:04:24;;;;;;;8.40;7.20;;;11.50;1.00;;;;;;4982166;28;20216;-67
2022/10/23 06:06:49;;;;;;;7.73;7.03;;;11.40;1.00;;;;;;4985451;28;20758;-68
2022/10/23 06:09:15;;;;;;;11.13;8.13;;;11.30;1.00;;;;;;4991410;28;20602;-68
2022/10/23 06:11:41;;;;;;;7.57;6.80;;;11.40;1.00;;;;;;4990675;28;20713;-68
2022/10/23 06:14:07;;;;;;;8.23;6.77;;;11.40;1.00;;;;;;4990101;28;20668;-68
2022/10/23 06:16:33;;;;;;;16.00;8.27;;;11.50;1.00;;;;;;4990321;28;20440;-70
2022/10/23 06:18:59;;;;;;;33.10;9.33;;;11.50;1.00;;;;;;4985080;28;20334;-69
2022/10/23 06:21:25;;;;;;;23.17;8.60;;;11.50;1.00;;;;;;4984552;28;20211;-69
2022/10/23 06:23:50;;;;;;;30.57;8.97;;;11.30;1.00;;;;;;4990990;28;20302;-69
2022/10/23 06:26:18;;;;;;;13.60;8.27;;;11.30;1.00;;;;;;4991099;28;20460;-71
2022/10/23 06:28:44;;;;;;;11.20;8.33;;;11.50;1.00;;;;;;4990564;28;20226;-71
2022/10/23 06:31:14;;;;;;;9.93;7.70;;;11.60;1.00;;;;;;4984077;28;20494;-71
2022/10/23 06:33:40;;;;;;;7.90;7.10;;;11.60;1.00;;;;;;4992009;28;20424;-69
2022/10/23 06:36:09;;;;;;;19.17;8.40;;;11.70;1.00;;;;;;4992449;28;20471;-73
2022/10/23 06:38:38;;;;;;;8.40;7.27;;;11.80;1.00;;;;;;4988428;28;20447;-69
2022/10/23 06:41:06;;;;;;;10.00;7.30;;;11.70;1.00;;;;;;4985528;28;20495;-72
2022/10/23 06:43:32;;;;;;;8.50;7.40;;;11.40;1.00;;;;;;4988013;28;20778;-70
2022/10/23 06:46:03;;;;;;;6.83;6.20;;;11.40;1.00;;;;;;4990296;28;20427;-71
2022/10/23 06:48:29;;;;;;;13.63;7.20;;;11.30;1.00;;;;;;4991073;28;20197;-70
2022/10/23 06:50:55;;;;;;;12.00;7.90;;;11.40;1.00;;;;;;4990584;28;20424;-71
2022/10/23 06:53:23;;;;;;;17.00;6.87;;;11.30;1.00;;;;;;4990048;28;20932;-71
2022/10/23 06:55:57;;;;;;;6.90;6.20;;;11.30;1.00;;;;;;4990960;28;20217;-70
2022/10/23 06:58:22;;;;;;;8.57;7.90;;;11.20;1.00;;;;;;4984532;28;20472;-72
2022/10/23 07:00:48;;;;;;;7.90;7.10;;;11.20;1.00;;;;;;4979772;28;20758;-70
2022/10/23 07:03:14;;;;;;;6.90;6.30;;;11.40;1.00;;;;;;4974666;28;20394;-70
2022/10/23 07:05:39;;;;;;;8.30;7.37;;;11.60;1.00;;;;;;4990057;28;20251;-72
2022/10/23 07:08:05;;;;;;;8.57;7.67;;;11.80;1.00;;;;;;4989731;28;20645;-70
2022/10/23 07:10:31;;;;;;;8.10;7.30;;;11.90;1.00;;;;;;4989864;28;20232;-71
2022/10/23 07:12:59;;;;;;;9.23;6.73;;;11.60;1.00;;;;;;4990195;28;20260;-73
2022/10/23 07:15:26;;;;;;;9.40;7.40;;;11.50;1.00;;;;;;4989836;28;20197;-72
2022/10/23 07:17:52;;;;;;;26.30;7.60;;;11.40;1.00;;;;;;4990390;28;20530;-71
2022/10/23 07:20:18;;;;;;;10.43;6.90;;;11.50;1.00;;;;;;4988500;28;20780;-70
2022/10/23 07:22:49;;;;;;;21.23;8.03;;;11.30;1.00;;;;;;4988609;28;20467;-70
2022/10/23 07:25:14;;;;;;;56.23;10.07;;;11.10;1.00;;;;;;4986167;28;20227;-68
2022/10/23 07:27:41;;;;;;;10.97;7.93;;;11.00;1.00;;;;;;4986523;28;20428;-69
2022/10/23 07:30:07;;;;;;;12.13;7.53;;;11.20;1.00;;;;;;4988635;28;20196;-70
2022/10/23 07:32:33;;;;;;;27.17;9.13;;;11.50;1.00;;;;;;4988450;28;20959;-70
2022/10/23 07:34:58;;;;;;;9.70;7.23;;;11.20;1.00;;;;;;4995883;23;20495;-68
2022/10/23 07:37:24;;;;;;;20.10;9.20;;;11.20;1.00;;;;;;4950412;28;20232;-69
2022/10/23 07:39:50;;;;;;;29.50;9.50;;;11.50;1.00;;;;;;4948455;29;20174;-69
2022/10/23 07:42:15;;;;;;;15.50;8.53;;;11.80;1.00;;;;;;4949765;29;20198;-69
2022/10/23 07:44:41;;;;;;;11.30;8.03;;;11.80;1.00;;;;;;4950968;28;20635;-68
2022/10/23 07:47:08;;;;;;;9.80;8.80;;;11.90;1.00;;;;;;4950122;28;20170;-68
2022/10/23 07:49:33;;;;;;;7.50;6.80;;;11.90;1.00;;;;;;4949543;29;20186;-68
2022/10/23 07:51:59;;;;;;;8.70;7.90;;;12.00;1.00;;;;;;4948953;29;20424;-68
2022/10/23 07:54:24;;;;;;;9.30;8.40;;;12.00;1.00;;;;;;4946028;28;20710;-68
2022/10/23 07:56:50;;;;;;;9.17;8.27;;;12.10;1.00;;;;;;4950179;28;20651;-69
2022/10/23 07:59:16;;;;;;;8.70;8.00;;;12.20;1.00;;;;;;4948651;28;20838;-69
2022/10/23 08:01:42;;;;;;;32.37;9.07;;;12.30;1.00;;;;;;4948297;28;20194;-68
2022/10/23 08:04:09;;;;;;;10.60;6.90;;;12.00;1.00;;;;;;4950776;28;20174;-70
2022/10/23 08:06:35;;;;;;;10.70;7.47;;;11.80;1.00;;;;;;4950470;28;20442;-70
2022/10/23 08:09:01;;;;;;;18.53;8.17;;;11.80;1.00;;;;;;4947483;28;20416;-69
2022/10/23 08:11:29;;;;;;;21.80;9.10;;;11.90;1.00;;;;;;4945693;29;20429;-69
2022/10/23 08:13:57;;;;;;;11.50;8.37;;;11.80;1.00;;;;;;4941909;28;20430;-68
2022/10/23 08:16:24;;;;;;;9.57;8.57;;;11.70;1.00;;;;;;4949778;28;20517;-69
2022/10/23 08:18:50;;;;;;;9.40;8.47;;;11.70;1.00;;;;;;4950513;29;20899;-69
2022/10/23 08:21:17;;;;;;;9.27;8.10;;;11.90;1.00;;;;;;4952103;28;20529;-69
2022/10/23 08:23:43;;;;;;;9.87;8.57;;;12.00;1.00;;;;;;4953011;29;21260;-70
2022/10/23 08:26:10;;;;;;;12.73;8.40;;;11.90;1.00;;;;;;4953058;28;20433;-68
2022/10/23 08:28:36;;;;;;;11.00;9.13;;;11.90;1.00;;;;;;4954074;28;20422;-69
2022/10/23 08:31:28;;;;;;;9.63;8.73;;;11.90;1.00;;;;;;4952486;28;20414;-68
2022/10/23 08:33:54;;;;;;;9.50;8.60;;;12.00;1.00;;;;;;4952995;28;20440;-68
2022/10/23 08:36:27;;;;;;;8.70;7.90;;;12.10;1.00;;;;;;4952395;29;20986;-69
2022/10/23 08:38:57;;;;;;;9.43;7.90;;;12.20;1.00;;;;;;4953769;28;20225;-69
2022/10/23 08:41:31;;;;;;;11.83;8.87;;;12.30;1.00;;;;;;4952997;28;20458;-69
2022/10/23 08:44:26;;;;;;;12.23;8.40;;;12.40;1.00;;;;;;4954119;28;20848;-69
2022/10/23 08:46:59;;;;;;;10.03;8.00;;;12.50;1.00;;;;;;4953386;28;20803;-68
2022/10/23 08:49:44;;;;;;;14.80;8.17;;;12.40;1.00;;;;;;4954076;28;20426;-68
2022/10/23 08:52:25;;;;;;;38.83;11.50;;;12.40;1.00;;;;;;4948303;29;20970;-68
2022/10/23 08:54:54;;;;;;;20.30;7.80;;;12.60;1.00;;;;;;4952241;29;20448;-68
2022/10/23 08:57:22;;;;;;;23.93;8.90;;;12.70;1.00;;;;;;4952776;28;20803;-68
2022/10/23 08:59:53;;;;;;;8.80;7.90;;;12.80;1.00;;;;;;4954073;28;20424;-68
2022/10/23 09:02:51;;;;;;;13.33;8.50;;;12.90;1.00;;;;;;4949032;28;20454;-68
2022/10/23 09:05:43;;;;;;;10.40;8.03;;;12.80;1.00;;;;;;4951542;28;20436;-67
2022/10/23 09:08:27;;;;;;;7.50;6.80;;;12.80;1.00;;;;;;4948858;29;20500;-67
2022/10/23 09:11:24;;;;;;;9.80;6.97;;;12.70;1.00;;;;;;4951171;28;20402;-68
2022/10/23 09:14:07;;;;;;;10.90;7.73;;;12.60;1.00;;;;;;4951776;29;20453;-67
2022/10/23 09:16:53;;;;;;;7.60;6.83;;;12.70;1.00;;;;;;4950896;28;20436;-69
2022/10/23 09:19:25;;;;;;;7.00;6.40;;;12.70;1.00;;;;;;4951155;28;20498;-68
2022/10/23 09:21:51;;;;;;;14.13;8.20;;;12.60;1.00;;;;;;4950117;28;20472;-70
2022/10/23 09:24:21;;;;;;;18.83;7.30;;;12.50;1.00;;;;;;4950675;28;20414;-68
2022/10/23 09:26:50;;;;;;;7.47;6.70;;;12.40;1.00;;;;;;4950777;28;20561;-69
2022/10/23 09:29:32;;;;;;;58.40;11.23;;;12.40;1.00;;;;;;4950721;28;20413;-69
2022/10/23 09:32:04;;;;;;;8.00;7.20;;;12.50;1.00;;;;;;4949464;28;21388;-68
2022/10/23 09:34:31;;;;;;;7.37;6.67;;;12.70;1.00;;;;;;4949464;28;20449;-69
2022/10/23 09:37:22;;;;;;;9.20;7.77;;;12.70;1.00;;;;;;4949388;28;20633;-68
2022/10/23 09:39:48;;;;;;;7.53;6.93;;;12.90;1.00;;;;;;4946794;29;20413;-68
2022/10/23 09:42:22;;;;;;;8.00;7.00;;;13.20;1.00;;;;;;4949855;28;20484;-68
2022/10/23 09:44:50;;;;;;;62.30;10.90;;;13.50;1.00;;;;;;4950564;28;20166;-68
2022/10/23 09:47:19;;;;;;;9.80;7.30;;;13.60;1.00;;;;;;4950221;28;20409;-69
2022/10/23 09:49:55;;;;;;;8.50;6.87;;;13.90;99.90;;;;;;4950603;28;20772;-69
2022/10/23 09:52:27;;;;;;;9.80;7.47;;;13.70;99.90;;;;;;4948204;29;21000;-68
2022/10/23 09:55:01;;;;;;;8.57;7.77;;;13.80;1.00;;;;;;4950586;28;20497;-70
2022/10/23 09:57:41;;;;;;;8.70;7.90;;;14.00;99.90;;;;;;4950423;28;20406;-69
2022/10/23 10:00:13;;;;;;;11.03;8.53;;;13.90;99.90;;;;;;4949431;28;20468;-68
2022/10/23 10:02:40;;;;;;;9.70;8.80;;;13.90;99.90;;;;;;4944620;28;20449;-69
2022/10/23 10:05:25;;;;;;;11.80;9.00;;;14.00;99.90;;;;;;4948900;29;20600;-69
2022/10/23 10:08:17;;;;;;;8.17;7.37;;;14.60;99.90;;;;;;4948533;29;20421;-69
2022/10/23 10:10:50;;;;;;;7.30;6.60;;;14.80;1.00;;;;;;4945866;29;20850;-69
2022/10/23 10:13:37;;;;;;;6.50;5.90;;;15.20;99.90;;;;;;4952027;28;20414;-70
2022/10/23 10:16:14;;;;;;;7.60;6.50;;;15.10;99.90;;;;;;4951530;28;20848;-68
2022/10/23 10:18:55;;;;;;;5.70;5.20;;;15.00;99.90;;;;;;4946808;29;20414;-69
2022/10/23 10:21:33;;;;;;;8.50;5.80;;;15.10;1.00;;;;;;4950961;28;20449;-69
2022/10/23 10:24:04;;;;;;;6.73;6.20;;;15.00;99.90;;;;;;4951382;29;20425;-70
2022/10/23 10:26:50;;;;;;;10.20;6.20;;;14.60;99.90;;;;;;4952080;28;20529;-69
2022/10/23 10:30:10;;;;;;;6.97;6.33;;;14.90;99.90;;;;;;4951694;28;20429;-69
2022/10/23 10:32:38;;;;;;;6.17;5.67;;;14.90;1.00;;;;;;4929071;29;20427;-69
2022/10/23 10:35:07;;;;;;;7.30;5.47;;;14.90;99.90;;;;;;4947053;28;20528;-69
2022/10/23 10:37:39;;;;;;;7.97;4.93;;;14.80;99.90;;;;;;4952073;28;20409;-70
2022/10/23 10:40:30;;;;;;;6.30;5.70;;;14.80;1.00;;;;;;4951706;28;20485;-70
2022/10/23 10:43:08;;;;;;;5.90;5.40;;;15.10;1.00;;;;;;4947999;28;21007;-68
2022/10/23 10:45:56;;;;;;;7.67;5.80;;;15.20;1.00;;;;;;4949567;29;20437;-69
2022/10/23 10:48:22;;;;;;;13.23;6.30;;;15.20;99.90;;;;;;4951229;29;20430;-70
2022/10/23 10:51:05;;;;;;;6.10;5.60;;;15.00;1.00;;;;;;4950561;28;20477;-69
2022/10/23 10:53:59;;;;;;;6.63;5.70;;;15.10;64.40;;;;;;4950881;29;20202;-69
2022/10/23 10:56:29;;;;;;;16.30;6.60;;;15.10;4.60;;;;;;4951440;28;20817;-69
2022/10/23 10:58:59;;;;;;;8.10;6.07;;;15.10;99.90;;;;;;4951717;28;20777;-68
2022/10/23 11:02:02;;;;;;;5.67;5.20;;;15.20;99.90;;;;;;4950342;29;20457;-68
2022/10/23 11:04:54;;;;;;;6.60;6.00;;;15.40;99.90;;;;;;4945167;29;20903;-67
2022/10/23 11:07:25;;;;;;;6.80;6.13;;;15.30;99.90;;;;;;4949829;29;20425;-69
2022/10/23 11:09:52;;;;;;;7.43;5.97;;;15.10;99.90;;;;;;4951225;28;20818;-68
2022/10/23 11:12:23;;;;;;;6.00;5.50;;;15.20;1.00;;;;;;4950220;28;20421;-69
2022/10/23 11:14:50;;;;;;;6.40;5.57;;;15.10;1.00;;;;;;4948789;28;20534;-69
2022/10/23 11:17:25;;;;;;;11.10;5.50;;;15.20;1.00;;;;;;4950230;28;20807;-69
2022/10/23 11:20:06;;;;;;;7.13;6.53;;;15.50;1.00;;;;;;4951141;28;20471;-68
2022/10/23 11:23:04;;;;;;;19.90;7.07;;;15.40;1.00;;;;;;4949811;28;20548;-69
2022/10/23 11:25:54;;;;;;;6.43;5.83;;;16.00;1.00;;;;;;4945588;28;20450;-69
2022/10/23 11:28:26;;;;;;;6.70;6.20;;;15.80;50.50;;;;;;4951155;28;20444;-68
2022/10/23 11:30:57;;;;;;;6.57;5.97;;;15.70;1.00;;;;;;4949540;28;20814;-69
2022/10/23 11:33:42;;;;;;;8.03;6.77;;;15.60;99.90;;;;;;4951007;28;20402;-68
2022/10/23 11:36:15;;;;;;;26.13;7.80;;;15.50;1.00;;;;;;4949577;28;20972;-69
2022/10/23 11:38:47;;;;;;;18.13;5.87;;;15.40;1.00;;;;;;4948790;29;20424;-69
2022/10/23 11:41:32;;;;;;;8.03;5.67;;;15.30;99.90;;;;;;4949894;28;20540;-68
2022/10/23 11:44:02;;;;;;;8.80;5.93;;;15.40;1.00;;;;;;4951007;28;20501;-67
2022/10/23 11:46:37;;;;;;;6.17;5.67;;;15.50;1.00;;;;;;4949137;29;20544;-69
2022/10/23 11:49:05;;;;;;;10.10;6.30;;;15.50;1.00;;;;;;4950169;28;20414;-68
2022/10/23 11:51:39;;;;;;;17.20;7.53;;;15.50;1.00;;;;;;4946764;29;20435;-68
2022/10/23 11:54:14;;;;;;;27.47;7.20;;;15.70;99.90;;;;;;4949027;29;20456;-70
2022/10/23 11:57:10;;;;;;;6.93;5.30;;;15.80;1.00;;;;;;4944748;28;20551;-69
2022/10/23 11:59:40;;;;;;;6.00;5.40;;;15.70;99.90;;;;;;4947353;29;20938;-68
2022/10/23 12:02:25;;;;;;;10.97;5.43;;;15.70;1.00;;;;;;4950329;28;20461;-68
2022/10/23 12:04:52;;;;;;;10.00;5.83;;;15.70;1.00;;;;;;4947409;28;20746;-68
2022/10/23 12:07:30;;;;;;;8.07;6.03;;;15.90;1.00;;;;;;4950904;28;20461;-68
2022/10/23 12:10:25;;;;;;;6.80;6.10;;;16.10;99.90;;;;;;4951348;28;20517;-68
2022/10/23 12:13:05;;;;;;;5.70;5.10;;;16.00;1.00;;;;;;4949415;29;20454;-68
2022/10/23 12:15:33;;;;;;;8.60;5.33;;;16.10;1.00;;;;;;4950901;28;20428;-68
2022/10/23 12:18:19;;;;;;;6.40;4.87;;;16.20;1.00;;;;;;4951013;28;20412;-68
2022/10/23 12:20:53;;;;;;;5.00;4.50;;;16.50;99.90;;;;;;4948654;28;20436;-68
2022/10/23 12:23:40;;;;;;;6.07;5.47;;;16.70;1.00;;;;;;4943440;29;20536;-68
2022/10/23 12:26:38;;;;;;;8.10;5.80;;;16.80;1.00;;;;;;4950253;28;20551;-68
2022/10/23 12:29:43;;;;;;;5.50;4.40;;;16.80;99.90;;;;;;4948536;29;20812;-68
2022/10/23 12:32:27;;;;;;;6.00;4.47;;;16.90;62.50;;;;;;4947406;29;20421;-68
2022/10/23 12:35:05;;;;;;;6.33;4.80;;;17.30;1.00;;;;;;4949052;28;20545;-68
2022/10/23 12:38:14;;;;;;;15.97;6.00;;;17.50;1.00;;;;;;4949047;28;20453;-68
2022/10/23 12:40:51;;;;;;;5.17;4.67;;;17.60;99.90;;;;;;4948572;28;20422;-68
2022/10/23 12:43:29;;;;;;;4.93;3.73;;;17.60;99.90;;;;;;4944698;29;20436;-68
2022/10/23 12:45:58;;;;;;;29.77;6.93;;;17.80;99.90;;;;;;4949352;28;20434;-68
2022/10/23 12:48:24;;;;;;;10.40;3.97;;;17.60;99.90;;;;;;4952598;28;20428;-68
2022/10/23 12:50:53;;;;;;;3.57;3.07;;;17.50;99.90;;;;;;4960234;28;20432;-68
2022/10/23 12:53:20;;;;;;;7.47;3.60;;;17.60;99.90;;;;;;4948331;28;20532;-68
2022/10/23 12:55:51;;;;;;;31.40;6.10;;;17.80;99.90;;;;;;4952340;28;20438;-69
2022/10/23 12:58:22;;;;;;;15.40;5.13;;;17.90;99.90;;;;;;4947158;28;20575;-69
2022/10/23 13:00:57;;;;;;;4.40;3.87;;;18.00;1.00;;;;;;4960419;28;20445;-69
2022/10/23 13:03:25;;;;;;;3.73;3.40;;;17.90;99.90;;;;;;4949037;28;20504;-66
2022/10/23 13:05:53;;;;;;;6.30;3.50;;;17.90;99.90;;;;;;4948506;28;20438;-66
2022/10/23 13:08:21;;;;;;;4.10;3.00;;;18.10;99.90;;;;;;4952048;28;20432;-66
2022/10/23 13:10:48;;;;;;;3.80;3.50;;;18.00;99.90;;;;;;4956374;28;20421;-67
2022/10/23 13:13:20;;;;;;;4.30;3.90;;;17.70;99.90;;;;;;4961386;28;21160;-67
2022/10/23 13:15:46;;;;;;;4.03;3.63;;;17.70;99.90;;;;;;4957843;28;20491;-67